sensor_id;sensor_type;location;lat;lon;timestamp;pressure;altitude;pressure_sealevel;temperature;humidity
32456;BME280;18912;43.270;27.942;2023-10-08T00:02:03;98185.41;;;20.99;34.29
32456;BME280;18912;43.270;27.942;2023-10-08T00:04:31;98181.53;;;20.95;34.52
32456;BME280;18912;43.270;27.942;2023-10-08T00:06:58;98177.13;;;20.94;34.63
32456;BME280;18912;43.270;27.942;2023-10-08T00:09:23;98183.44;;;20.99;34.67
32456;BME280;18912;43.270;27.942;2023-10-08T00:11:49;98169.13;;;20.82;34.81
32456;BME280;18912;43.270;27.942;2023-10-08T00:14:18;98171.66;;;20.99;34.62
32456;BME280;18912;43.270;27.942;2023-10-08T00:16:46;98178.28;;;21.13;34.55
32456;BME280;18912;43.270;27.942;2023-10-08T00:19:15;98166.78;;;21.16;34.35
32456;BME280;18912;43.270;27.942;2023-10-08T00:21:42;98173.28;;;20.90;35.02
32456;BME280;18912;43.270;27.942;2023-10-08T00:24:10;98173.84;;;20.97;34.80
32456;BME280;18912;43.270;27.942;2023-10-08T00:26:35;98174.94;;;20.91;34.79
32456;BME280;18912;43.270;27.942;2023-10-08T00:29:05;98167.31;;;21.08;34.72
32456;BME280;18912;43.270;27.942;2023-10-08T00:31:46;98167.22;;;20.78;35.16
32456;BME280;18912;43.270;27.942;2023-10-08T00:34:14;98157.34;;;20.87;35.19
32456;BME280;18912;43.270;27.942;2023-10-08T00:36:40;98160.66;;;20.84;35.02
32456;BME280;18912;43.270;27.942;2023-10-08T00:39:06;98150.72;;;20.73;35.57
32456;BME280;18912;43.270;27.942;2023-10-08T00:41:59;98146.88;;;20.79;35.26
32456;BME280;18912;43.270;27.942;2023-10-08T00:44:24;98147.69;;;20.64;35.55
32456;BME280;18912;43.270;27.942;2023-10-08T00:46:55;98148.50;;;20.75;35.31
32456;BME280;18912;43.270;27.942;2023-10-08T00:49:25;98144.69;;;20.86;35.61
32456;BME280;18912;43.270;27.942;2023-10-08T00:52:00;98141.13;;;20.85;35.82
32456;BME280;18912;43.270;27.942;2023-10-08T00:54:38;98135.94;;;20.99;35.72
32456;BME280;18912;43.270;27.942;2023-10-08T00:57:22;98132.38;;;21.18;35.36
32456;BME280;18912;43.270;27.942;2023-10-08T00:59:48;98132.09;;;21.05;35.69
32456;BME280;18912;43.270;27.942;2023-10-08T01:02:21;98129.91;;;21.07;35.46
32456;BME280;18912;43.270;27.942;2023-10-08T01:04:50;98117.81;;;21.13;35.60
32456;BME280;18912;43.270;27.942;2023-10-08T01:07:16;98127.47;;;21.25;35.46
32456;BME280;18912;43.270;27.942;2023-10-08T01:09:42;98118.91;;;21.02;35.76
32456;BME280;18912;43.270;27.942;2023-10-08T01:12:08;98124.34;;;20.77;36.07
32456;BME280;18912;43.270;27.942;2023-10-08T01:14:37;98125.97;;;20.73;36.17
32456;BME280;18912;43.270;27.942;2023-10-08T01:17:02;98113.84;;;20.54;36.61
32456;BME280;18912;43.270;27.942;2023-10-08T01:19:30;98113.06;;;20.53;36.21
32456;BME280;18912;43.270;27.942;2023-10-08T01:22:04;98118.31;;;20.70;36.37
32456;BME280;18912;43.270;27.942;2023-10-08T01:24:31;98114.72;;;20.69;36.26
32456;BME280;18912;43.270;27.942;2023-10-08T01:27:01;98110.59;;;20.57;36.70
32456;BME280;18912;43.270;27.942;2023-10-08T01:29:30;98114.97;;;20.58;36.74
32456;BME280;18912;43.270;27.942;2023-10-08T01:31:57;98103.47;;;20.86;36.52
32456;BME280;18912;43.270;27.942;2023-10-08T01:34:22;98099.34;;;20.78;36.53
32456;BME280;18912;43.270;27.942;2023-10-08T01:36:53;98088.94;;;20.85;36.46
32456;BME280;18912;43.270;27.942;2023-10-08T01:39:18;98076.88;;;21.01;36.12
32456;BME280;18912;43.270;27.942;2023-10-08T01:41:44;98083.41;;;20.80;36.67
32456;BME280;18912;43.270;27.942;2023-10-08T01:44:10;98074.84;;;20.46;37.59
32456;BME280;18912;43.270;27.942;2023-10-08T01:46:35;98071.00;;;20.32;38.24
32456;BME280;18912;43.270;27.942;2023-10-08T01:49:01;98068.88;;;20.65;37.73
32456;BME280;18912;43.270;27.942;2023-10-08T01:51:33;98066.91;;;20.40;38.26
32456;BME280;18912;43.270;27.942;2023-10-08T01:54:03;98067.13;;;20.33;38.66
32456;BME280;18912;43.270;27.942;2023-10-08T01:56:34;98054.81;;;20.46;38.20
32456;BME280;18912;43.270;27.942;2023-10-08T01:59:00;98049.88;;;20.38;38.49
32456;BME280;18912;43.270;27.942;2023-10-08T02:01:25;98052.31;;;20.24;38.73
32456;BME280;18912;43.270;27.942;2023-10-08T02:03:51;98055.47;;;20.01;39.17
32456;BME280;18912;43.270;27.942;2023-10-08T02:06:16;98058.06;;;20.28;38.65
32456;BME280;18912;43.270;27.942;2023-10-08T02:08:41;98053.44;;;20.43;38.44
32456;BME280;18912;43.270;27.942;2023-10-08T02:11:07;98058.63;;;20.30;38.91
32456;BME280;18912;43.270;27.942;2023-10-08T02:13:33;98059.75;;;20.39;38.61
32456;BME280;18912;43.270;27.942;2023-10-08T02:15:59;98048.47;;;20.40;38.75
32456;BME280;18912;43.270;27.942;2023-10-08T02:18:25;98046.34;;;20.68;38.19
32456;BME280;18912;43.270;27.942;2023-10-08T02:20:50;98051.22;;;20.30;38.79
32456;BME280;18912;43.270;27.942;2023-10-08T02:23:16;98049.34;;;20.61;38.45
32456;BME280;18912;43.270;27.942;2023-10-08T02:25:43;98041.91;;;20.46;38.37
32456;BME280;18912;43.270;27.942;2023-10-08T02:28:09;98050.72;;;20.69;38.16
32456;BME280;18912;43.270;27.942;2023-10-08T02:30:37;98045.75;;;20.56;38.17
32456;BME280;18912;43.270;27.942;2023-10-08T02:33:04;98043.28;;;20.39;38.21
32456;BME280;18912;43.270;27.942;2023-10-08T02:35:39;98041.81;;;20.16;38.79
32456;BME280;18912;43.270;27.942;2023-10-08T02:38:04;98038.03;;;20.22;38.26
32456;BME280;18912;43.270;27.942;2023-10-08T02:40:31;98038.03;;;20.27;38.51
32456;BME280;18912;43.270;27.942;2023-10-08T02:42:57;98036.00;;;20.03;38.63
32456;BME280;18912;43.270;27.942;2023-10-08T02:45:26;98034.00;;;19.78;39.24
32456;BME280;18912;43.270;27.942;2023-10-08T02:47:51;98034.09;;;20.08;38.63
32456;BME280;18912;43.270;27.942;2023-10-08T02:50:18;98042.50;;;19.82;39.17
32456;BME280;18912;43.270;27.942;2023-10-08T02:52:43;98039.13;;;20.31;38.40
32456;BME280;18912;43.270;27.942;2023-10-08T02:55:12;98029.78;;;20.22;38.22
32456;BME280;18912;43.270;27.942;2023-10-08T02:57:53;98033.63;;;20.21;38.37
32456;BME280;18912;43.270;27.942;2023-10-08T03:00:19;98029.19;;;20.15;38.34
32456;BME280;18912;43.270;27.942;2023-10-08T03:02:45;98025.94;;;20.18;38.21
32456;BME280;18912;43.270;27.942;2023-10-08T03:05:11;98022.78;;;19.90;38.99
32456;BME280;18912;43.270;27.942;2023-10-08T03:07:38;98020.56;;;19.77;38.87
32456;BME280;18912;43.270;27.942;2023-10-08T03:10:05;98017.34;;;20.05;38.60
32456;BME280;18912;43.270;27.942;2023-10-08T03:12:32;98025.78;;;19.83;38.95
32456;BME280;18912;43.270;27.942;2023-10-08T03:15:00;98022.50;;;19.86;38.82
32456;BME280;18912;43.270;27.942;2023-10-08T03:17:27;98014.31;;;19.96;38.89
32456;BME280;18912;43.270;27.942;2023-10-08T03:19:54;98007.16;;;19.95;38.56
32456;BME280;18912;43.270;27.942;2023-10-08T03:22:26;98002.72;;;19.74;39.12
32456;BME280;18912;43.270;27.942;2023-10-08T03:24:58;98000.63;;;20.06;38.54
32456;BME280;18912;43.270;27.942;2023-10-08T03:27:34;97995.31;;;19.80;39.05
32456;BME280;18912;43.270;27.942;2023-10-08T03:30:07;98000.88;;;20.05;38.64
32456;BME280;18912;43.270;27.942;2023-10-08T03:32:34;97990.19;;;19.98;38.69
32456;BME280;18912;43.270;27.942;2023-10-08T03:35:00;97974.28;;;20.05;38.66
32456;BME280;18912;43.270;27.942;2023-10-08T03:37:25;97984.69;;;19.98;38.54
32456;BME280;18912;43.270;27.942;2023-10-08T03:40:06;97980.94;;;20.29;38.00
32456;BME280;18912;43.270;27.942;2023-10-08T03:42:47;97989.09;;;20.04;38.37
32456;BME280;18912;43.270;27.942;2023-10-08T03:45:14;97985.25;;;20.10;38.38
32456;BME280;18912;43.270;27.942;2023-10-08T03:47:47;97990.81;;;20.20;38.23
32456;BME280;18912;43.270;27.942;2023-10-08T03:50:27;97991.63;;;20.31;38.05
32456;BME280;18912;43.270;27.942;2023-10-08T03:52:58;97991.28;;;20.02;38.40
32456;BME280;18912;43.270;27.942;2023-10-08T03:55:23;97994.69;;;20.44;37.61
32456;BME280;18912;43.270;27.942;2023-10-08T03:57:52;97988.66;;;20.63;37.66
32456;BME280;18912;43.270;27.942;2023-10-08T04:00:22;97983.16;;;20.37;37.79
32456;BME280;18912;43.270;27.942;2023-10-08T04:02:54;97984.50;;;20.35;38.05
32456;BME280;18912;43.270;27.942;2023-10-08T04:05:22;97984.19;;;20.16;38.39
32456;BME280;18912;43.270;27.942;2023-10-08T04:07:52;97976.84;;;20.37;38.01
32456;BME280;18912;43.270;27.942;2023-10-08T04:10:24;97978.69;;;20.16;38.41
32456;BME280;18912;43.270;27.942;2023-10-08T04:13:08;97978.63;;;19.86;38.79
32456;BME280;18912;43.270;27.942;2023-10-08T04:15:34;97969.03;;;19.99;38.83
32456;BME280;18912;43.270;27.942;2023-10-08T04:18:00;97981.97;;;20.03;38.61
32456;BME280;18912;43.270;27.942;2023-10-08T04:20:28;97961.41;;;20.16;38.21
32456;BME280;18912;43.270;27.942;2023-10-08T04:23:09;97982.03;;;20.18;38.13
32456;BME280;18912;43.270;27.942;2023-10-08T04:25:46;97963.31;;;20.05;38.40
32456;BME280;18912;43.270;27.942;2023-10-08T04:28:12;97959.97;;;19.93;38.54
32456;BME280;18912;43.270;27.942;2023-10-08T04:30:39;97962.81;;;20.18;38.21
32456;BME280;18912;43.270;27.942;2023-10-08T04:33:07;97963.59;;;20.09;38.27
32456;BME280;18912;43.270;27.942;2023-10-08T04:35:35;97965.19;;;19.95;38.03
32456;BME280;18912;43.270;27.942;2023-10-08T04:38:04;97963.84;;;19.97;38.33
32456;BME280;18912;43.270;27.942;2023-10-08T04:40:37;97961.13;;;20.12;37.68
32456;BME280;18912;43.270;27.942;2023-10-08T04:43:22;97969.91;;;20.14;37.92
32456;BME280;18912;43.270;27.942;2023-10-08T04:45:59;97953.47;;;20.34;37.57
32456;BME280;18912;43.270;27.942;2023-10-08T04:48:30;97955.63;;;20.12;37.82
32456;BME280;18912;43.270;27.942;2023-10-08T04:51:01;97950.47;;;20.41;37.30
32456;BME280;18912;43.270;27.942;2023-10-08T04:53:30;97952.69;;;20.54;37.39
32456;BME280;18912;43.270;27.942;2023-10-08T04:56:05;97942.00;;;20.48;37.22
32456;BME280;18912;43.270;27.942;2023-10-08T04:58:33;97941.69;;;20.54;37.31
32456;BME280;18912;43.270;27.942;2023-10-08T05:01:01;97943.63;;;20.59;37.38
32456;BME280;18912;43.270;27.942;2023-10-08T05:03:46;97948.28;;;20.63;37.31
32456;BME280;18912;43.270;27.942;2023-10-08T05:06:23;97949.38;;;20.67;37.13
32456;BME280;18912;43.270;27.942;2023-10-08T05:09:04;97960.91;;;20.84;36.83
32456;BME280;18912;43.270;27.942;2023-10-08T05:11:36;97963.84;;;21.38;36.61
32456;BME280;18912;43.270;27.942;2023-10-08T05:14:20;97952.41;;;21.01;36.79
32456;BME280;18912;43.270;27.942;2023-10-08T05:17:01;97953.06;;;21.47;36.12
32456;BME280;18912;43.270;27.942;2023-10-08T05:19:37;97953.13;;;21.31;36.35
32456;BME280;18912;43.270;27.942;2023-10-08T05:22:05;97950.69;;;21.20;36.58
32456;BME280;18912;43.270;27.942;2023-10-08T05:24:45;97951.53;;;21.25;36.62
32456;BME280;18912;43.270;27.942;2023-10-08T05:27:32;97947.38;;;21.33;36.70
32456;BME280;18912;43.270;27.942;2023-10-08T05:30:27;97959.28;;;21.77;36.30
32456;BME280;18912;43.270;27.942;2023-10-08T05:33:03;97967.06;;;21.65;36.16
32456;BME280;18912;43.270;27.942;2023-10-08T05:35:29;97954.59;;;21.78;35.85
32456;BME280;18912;43.270;27.942;2023-10-08T05:38:06;97948.19;;;22.41;35.25
32456;BME280;18912;43.270;27.942;2023-10-08T05:40:42;97955.88;;;22.44;34.90
32456;BME280;18912;43.270;27.942;2023-10-08T05:43:23;97950.97;;;22.36;34.94
32456;BME280;18912;43.270;27.942;2023-10-08T05:46:04;97946.25;;;22.42;35.25
32456;BME280;18912;43.270;27.942;2023-10-08T05:48:51;97945.47;;;22.36;35.00
32456;BME280;18912;43.270;27.942;2023-10-08T05:51:46;97949.31;;;23.31;34.32
32456;BME280;18912;43.270;27.942;2023-10-08T05:54:30;97941.81;;;23.08;33.82
32456;BME280;18912;43.270;27.942;2023-10-08T05:56:56;97937.38;;;22.83;34.58
32456;BME280;18912;43.270;27.942;2023-10-08T06:02:20;97950.75;;;23.71;33.01
32456;BME280;18912;43.270;27.942;2023-10-08T06:04:58;97947.59;;;23.82;33.12
32456;BME280;18912;43.270;27.942;2023-10-08T06:07:42;97945.53;;;23.93;32.66
32456;BME280;18912;43.270;27.942;2023-10-08T06:10:16;97948.41;;;24.06;32.39
32456;BME280;18912;43.270;27.942;2023-10-08T06:13:12;97948.91;;;24.46;31.95
32456;BME280;18912;43.270;27.942;2023-10-08T06:16:10;97949.56;;;24.38;32.17
32456;BME280;18912;43.270;27.942;2023-10-08T06:18:38;97944.91;;;24.20;32.17
32456;BME280;18912;43.270;27.942;2023-10-08T06:21:04;97944.06;;;24.88;31.10
32456;BME280;18912;43.270;27.942;2023-10-08T06:23:34;97942.09;;;25.35;30.89
32456;BME280;18912;43.270;27.942;2023-10-08T06:26:03;97933.22;;;25.38;30.48
32456;BME280;18912;43.270;27.942;2023-10-08T06:28:34;97937.84;;;25.69;30.20
32456;BME280;18912;43.270;27.942;2023-10-08T06:31:00;97932.84;;;26.21;29.47
32456;BME280;18912;43.270;27.942;2023-10-08T06:33:26;97947.22;;;25.96;29.79
32456;BME280;18912;43.270;27.942;2023-10-08T06:35:58;97941.59;;;26.94;28.89
32456;BME280;18912;43.270;27.942;2023-10-08T06:38:30;97947.00;;;26.55;28.96
32456;BME280;18912;43.270;27.942;2023-10-08T06:41:00;97931.88;;;27.36;28.18
32456;BME280;18912;43.270;27.942;2023-10-08T06:43:26;97947.13;;;26.50;28.78
32456;BME280;18912;43.270;27.942;2023-10-08T06:45:52;97935.50;;;27.93;27.58
32456;BME280;18912;43.270;27.942;2023-10-08T06:48:18;97919.75;;;27.62;27.74
32456;BME280;18912;43.270;27.942;2023-10-08T06:50:45;97921.34;;;28.03;26.84
32456;BME280;18912;43.270;27.942;2023-10-08T06:53:11;97915.66;;;28.25;26.81
32456;BME280;18912;43.270;27.942;2023-10-08T06:55:39;97915.66;;;28.42;26.79
32456;BME280;18912;43.270;27.942;2023-10-08T06:58:05;97906.75;;;27.89;26.74
32456;BME280;18912;43.270;27.942;2023-10-08T07:00:31;97907.50;;;28.63;26.12
32456;BME280;18912;43.270;27.942;2023-10-08T07:03:12;97911.34;;;29.13;25.48
32456;BME280;18912;43.270;27.942;2023-10-08T07:05:49;97919.19;;;30.65;24.29
32456;BME280;18912;43.270;27.942;2023-10-08T07:08:25;97912.81;;;30.97;23.91
32456;BME280;18912;43.270;27.942;2023-10-08T07:10:52;97915.31;;;31.68;23.11
32456;BME280;18912;43.270;27.942;2023-10-08T07:13:20;97904.44;;;30.44;23.89
32456;BME280;18912;43.270;27.942;2023-10-08T07:15:50;97895.72;;;28.74;26.03
32456;BME280;18912;43.270;27.942;2023-10-08T07:18:15;97905.63;;;29.56;25.01
32456;BME280;18912;43.270;27.942;2023-10-08T07:20:47;97890.81;;;28.37;26.31
32456;BME280;18912;43.270;27.942;2023-10-08T07:23:22;97881.31;;;28.29;26.12
32456;BME280;18912;43.270;27.942;2023-10-08T07:25:54;97890.31;;;28.35;26.53
32456;BME280;18912;43.270;27.942;2023-10-08T07:28:25;97876.25;;;28.48;26.39
32456;BME280;18912;43.270;27.942;2023-10-08T07:30:51;97879.50;;;28.08;26.91
32456;BME280;18912;43.270;27.942;2023-10-08T07:33:17;97879.69;;;28.37;26.88
32456;BME280;18912;43.270;27.942;2023-10-08T07:35:44;97873.50;;;28.40;26.80
32456;BME280;18912;43.270;27.942;2023-10-08T07:38:17;97876.41;;;28.52;26.71
32456;BME280;18912;43.270;27.942;2023-10-08T07:40:42;97868.59;;;28.28;26.78
32456;BME280;18912;43.270;27.942;2023-10-08T07:43:09;97862.53;;;28.26;26.92
32456;BME280;18912;43.270;27.942;2023-10-08T07:45:35;97849.13;;;28.20;26.77
32456;BME280;18912;43.270;27.942;2023-10-08T07:48:01;97862.19;;;28.36;26.62
32456;BME280;18912;43.270;27.942;2023-10-08T07:50:26;97853.84;;;28.36;26.78
32456;BME280;18912;43.270;27.942;2023-10-08T07:52:54;97850.75;;;27.95;27.14
32456;BME280;18912;43.270;27.942;2023-10-08T07:55:21;97847.75;;;28.77;26.76
32456;BME280;18912;43.270;27.942;2023-10-08T07:57:47;97854.34;;;28.55;26.75
32456;BME280;18912;43.270;27.942;2023-10-08T08:00:14;97855.47;;;29.26;25.96
32456;BME280;18912;43.270;27.942;2023-10-08T08:02:51;97855.00;;;29.24;25.95
32456;BME280;18912;43.270;27.942;2023-10-08T08:05:17;97857.13;;;29.57;26.06
32456;BME280;18912;43.270;27.942;2023-10-08T08:07:43;97856.44;;;29.30;26.40
32456;BME280;18912;43.270;27.942;2023-10-08T08:10:11;97848.97;;;29.52;25.87
32456;BME280;18912;43.270;27.942;2023-10-08T08:12:37;97851.16;;;29.96;25.33
32456;BME280;18912;43.270;27.942;2023-10-08T08:15:03;97840.44;;;30.06;25.53
32456;BME280;18912;43.270;27.942;2023-10-08T08:17:39;97848.84;;;29.98;25.32
32456;BME280;18912;43.270;27.942;2023-10-08T08:20:05;97845.03;;;29.82;25.68
32456;BME280;18912;43.270;27.942;2023-10-08T08:22:42;97833.22;;;30.26;25.19
32456;BME280;18912;43.270;27.942;2023-10-08T08:25:12;97836.19;;;30.62;24.60
32456;BME280;18912;43.270;27.942;2023-10-08T08:27:42;97826.53;;;30.72;24.28
32456;BME280;18912;43.270;27.942;2023-10-08T08:30:09;97829.59;;;31.11;24.22
32456;BME280;18912;43.270;27.942;2023-10-08T08:32:38;97826.91;;;31.15;24.05
32456;BME280;18912;43.270;27.942;2023-10-08T08:35:10;97825.00;;;30.95;23.93
32456;BME280;18912;43.270;27.942;2023-10-08T08:37:36;97833.22;;;30.79;24.80
32456;BME280;18912;43.270;27.942;2023-10-08T08:40:03;97833.81;;;30.52;24.33
32456;BME280;18912;43.270;27.942;2023-10-08T08:42:42;97828.13;;;30.49;24.40
32456;BME280;18912;43.270;27.942;2023-10-08T08:45:09;97842.03;;;30.81;23.89
32456;BME280;18912;43.270;27.942;2023-10-08T08:47:36;97840.66;;;31.32;23.69
32456;BME280;18912;43.270;27.942;2023-10-08T08:50:02;97841.25;;;30.81;23.84
32456;BME280;18912;43.270;27.942;2023-10-08T08:52:37;97838.47;;;31.50;23.85
32456;BME280;18912;43.270;27.942;2023-10-08T08:55:09;97831.81;;;31.30;23.98
32456;BME280;18912;43.270;27.942;2023-10-08T08:57:42;97833.59;;;31.59;23.29
32456;BME280;18912;43.270;27.942;2023-10-08T09:00:09;97832.28;;;31.92;22.99
32456;BME280;18912;43.270;27.942;2023-10-08T09:02:39;97832.66;;;31.55;23.07
32456;BME280;18912;43.270;27.942;2023-10-08T09:05:04;97841.25;;;31.74;22.88
32456;BME280;18912;43.270;27.942;2023-10-08T09:08:00;97841.00;;;32.70;22.56
32456;BME280;18912;43.270;27.942;2023-10-08T09:10:29;97840.13;;;32.54;22.20
32456;BME280;18912;43.270;27.942;2023-10-08T09:12:55;97829.78;;;32.15;22.58
32456;BME280;18912;43.270;27.942;2023-10-08T09:15:27;97830.91;;;32.81;22.07
32456;BME280;18912;43.270;27.942;2023-10-08T09:17:53;97831.31;;;33.89;21.51
32456;BME280;18912;43.270;27.942;2023-10-08T09:20:20;97829.47;;;32.87;22.09
32456;BME280;18912;43.270;27.942;2023-10-08T09:22:45;97825.00;;;32.98;21.85
32456;BME280;18912;43.270;27.942;2023-10-08T09:25:17;97829.69;;;32.39;22.44
32456;BME280;18912;43.270;27.942;2023-10-08T09:27:45;97820.94;;;32.96;22.21
32456;BME280;18912;43.270;27.942;2023-10-08T09:30:17;97823.84;;;33.31;21.80
32456;BME280;18912;43.270;27.942;2023-10-08T09:32:44;97813.41;;;32.84;21.95
32456;BME280;18912;43.270;27.942;2023-10-08T09:35:10;97822.34;;;32.74;22.07
32456;BME280;18912;43.270;27.942;2023-10-08T09:37:35;97817.63;;;33.53;21.85
32456;BME280;18912;43.270;27.942;2023-10-08T09:40:01;97809.81;;;33.77;21.08
32456;BME280;18912;43.270;27.942;2023-10-08T09:42:33;97798.94;;;33.76;21.13
32456;BME280;18912;43.270;27.942;2023-10-08T09:45:00;97798.66;;;32.72;22.00
32456;BME280;18912;43.270;27.942;2023-10-08T09:47:31;97801.22;;;32.77;21.99
32456;BME280;18912;43.270;27.942;2023-10-08T09:50:02;97793.75;;;32.53;22.31
32456;BME280;18912;43.270;27.942;2023-10-08T09:55:31;97794.81;;;32.49;22.30
32456;BME280;18912;43.270;27.942;2023-10-08T09:57:56;97792.75;;;32.34;22.54
32456;BME280;18912;43.270;27.942;2023-10-08T10:00:22;97789.72;;;32.66;21.96
32456;BME280;18912;43.270;27.942;2023-10-08T10:03:04;97781.00;;;33.61;21.40
32456;BME280;18912;43.270;27.942;2023-10-08T10:05:30;97767.97;;;32.91;21.54
32456;BME280;18912;43.270;27.942;2023-10-08T10:07:57;97759.91;;;32.58;22.16
32456;BME280;18912;43.270;27.942;2023-10-08T10:10:25;97772.03;;;32.35;22.10
32456;BME280;18912;43.270;27.942;2023-10-08T10:13:00;97765.19;;;32.91;21.83
32456;BME280;18912;43.270;27.942;2023-10-08T10:15:27;97761.31;;;32.80;21.84
32456;BME280;18912;43.270;27.942;2023-10-08T10:17:59;97752.53;;;32.66;21.75
32456;BME280;18912;43.270;27.942;2023-10-08T10:20:33;97762.31;;;32.87;21.60
32456;BME280;18912;43.270;27.942;2023-10-08T10:22:59;97766.06;;;33.42;21.17
32456;BME280;18912;43.270;27.942;2023-10-08T10:25:33;97761.13;;;33.85;20.70
32456;BME280;18912;43.270;27.942;2023-10-08T10:30:25;97760.31;;;33.03;21.32
32456;BME280;18912;43.270;27.942;2023-10-08T10:32:52;97747.97;;;33.04;21.61
32456;BME280;18912;43.270;27.942;2023-10-08T10:35:18;97742.53;;;32.96;21.44
32456;BME280;18912;43.270;27.942;2023-10-08T10:37:45;97741.91;;;33.68;21.07
32456;BME280;18912;43.270;27.942;2023-10-08T10:40:19;97740.94;;;33.11;21.46
32456;BME280;18912;43.270;27.942;2023-10-08T10:42:58;97731.53;;;33.03;21.25
32456;BME280;18912;43.270;27.942;2023-10-08T10:45:28;97727.47;;;33.00;21.45
32456;BME280;18912;43.270;27.942;2023-10-08T10:48:05;97729.00;;;32.98;21.41
32456;BME280;18912;43.270;27.942;2023-10-08T10:50:50;97725.19;;;32.90;21.34
32456;BME280;18912;43.270;27.942;2023-10-08T10:53:39;97720.63;;;33.83;21.23
32456;BME280;18912;43.270;27.942;2023-10-08T10:56:22;97712.03;;;33.76;20.82
32456;BME280;18912;43.270;27.942;2023-10-08T10:58:58;97715.41;;;33.31;21.44
32456;BME280;18912;43.270;27.942;2023-10-08T11:01:27;97713.53;;;32.88;21.66
32456;BME280;18912;43.270;27.942;2023-10-08T11:03:55;97709.69;;;33.09;21.48
32456;BME280;18912;43.270;27.942;2023-10-08T11:06:22;97710.06;;;33.76;21.14
32456;BME280;18912;43.270;27.942;2023-10-08T11:08:51;97719.38;;;33.30;21.36
32456;BME280;18912;43.270;27.942;2023-10-08T11:11:26;97698.56;;;32.50;22.11
32456;BME280;18912;43.270;27.942;2023-10-08T11:13:55;97705.50;;;32.28;22.30
32456;BME280;18912;43.270;27.942;2023-10-08T11:16:22;97705.00;;;32.38;22.72
32456;BME280;18912;43.270;27.942;2023-10-08T11:18:48;97699.81;;;32.83;22.06
32456;BME280;18912;43.270;27.942;2023-10-08T11:21:16;97695.59;;;33.05;22.10
32456;BME280;18912;43.270;27.942;2023-10-08T11:23:43;97697.28;;;33.10;21.86
32456;BME280;18912;43.270;27.942;2023-10-08T11:26:12;97691.25;;;32.76;22.12
32456;BME280;18912;43.270;27.942;2023-10-08T11:28:41;97685.56;;;32.57;22.31
32456;BME280;18912;43.270;27.942;2023-10-08T11:31:07;97689.13;;;32.42;22.77
32456;BME280;18912;43.270;27.942;2023-10-08T11:33:34;97668.56;;;32.07;22.93
32456;BME280;18912;43.270;27.942;2023-10-08T11:36:04;97667.78;;;32.50;22.65
32456;BME280;18912;43.270;27.942;2023-10-08T11:38:41;97670.69;;;32.41;22.67
32456;BME280;18912;43.270;27.942;2023-10-08T11:41:11;97665.25;;;32.60;22.87
32456;BME280;18912;43.270;27.942;2023-10-08T11:43:38;97669.38;;;31.80;23.15
32456;BME280;18912;43.270;27.942;2023-10-08T11:46:04;97675.78;;;31.80;23.24
32456;BME280;18912;43.270;27.942;2023-10-08T11:48:30;97678.88;;;32.46;22.92
32456;BME280;18912;43.270;27.942;2023-10-08T11:50:57;97678.38;;;32.01;23.24
32456;BME280;18912;43.270;27.942;2023-10-08T11:53:22;97675.66;;;31.77;23.07
32456;BME280;18912;43.270;27.942;2023-10-08T11:55:49;97665.59;;;31.88;23.35
32456;BME280;18912;43.270;27.942;2023-10-08T11:58:17;97663.31;;;31.50;23.50
32456;BME280;18912;43.270;27.942;2023-10-08T12:00:43;97668.53;;;31.52;23.72
32456;BME280;18912;43.270;27.942;2023-10-08T12:03:14;97662.41;;;31.74;23.39
32456;BME280;18912;43.270;27.942;2023-10-08T12:05:46;97657.38;;;32.07;23.36
32456;BME280;18912;43.270;27.942;2023-10-08T12:08:17;97655.19;;;31.73;23.53
32456;BME280;18912;43.270;27.942;2023-10-08T12:10:45;97652.09;;;31.62;23.73
32456;BME280;18912;43.270;27.942;2023-10-08T12:13:12;97650.59;;;31.65;23.57
32456;BME280;18912;43.270;27.942;2023-10-08T12:15:37;97655.59;;;31.59;23.89
32456;BME280;18912;43.270;27.942;2023-10-08T12:18:07;97647.25;;;31.75;23.58
32456;BME280;18912;43.270;27.942;2023-10-08T12:20:49;97634.94;;;31.76;23.52
32456;BME280;18912;43.270;27.942;2023-10-08T12:23:15;97640.28;;;32.24;23.16
32456;BME280;18912;43.270;27.942;2023-10-08T12:25:56;97638.28;;;31.81;23.53
32456;BME280;18912;43.270;27.942;2023-10-08T12:28:21;97635.56;;;32.12;23.05
32456;BME280;18912;43.270;27.942;2023-10-08T12:30:48;97627.38;;;32.04;23.61
32456;BME280;18912;43.270;27.942;2023-10-08T12:33:14;97638.97;;;31.90;23.71
32456;BME280;18912;43.270;27.942;2023-10-08T12:35:43;97623.19;;;31.98;23.75
32456;BME280;18912;43.270;27.942;2023-10-08T12:38:09;97621.47;;;31.93;23.80
32456;BME280;18912;43.270;27.942;2023-10-08T12:40:35;97615.41;;;31.64;24.32
32456;BME280;18912;43.270;27.942;2023-10-08T12:43:16;97619.28;;;31.87;24.00
32456;BME280;18912;43.270;27.942;2023-10-08T12:45:48;97624.44;;;32.44;24.02
32456;BME280;18912;43.270;27.942;2023-10-08T12:50:44;97616.50;;;32.61;24.13
32456;BME280;18912;43.270;27.942;2023-10-08T12:53:09;97624.84;;;32.14;24.08
32456;BME280;18912;43.270;27.942;2023-10-08T12:55:39;97620.72;;;32.24;24.19
32456;BME280;18912;43.270;27.942;2023-10-08T12:58:05;97612.25;;;32.36;24.30
32456;BME280;18912;43.270;27.942;2023-10-08T13:00:36;97617.34;;;32.46;24.06
32456;BME280;18912;43.270;27.942;2023-10-08T13:03:14;97604.38;;;32.42;24.26
32456;BME280;18912;43.270;27.942;2023-10-08T13:05:48;97604.31;;;32.38;24.05
32456;BME280;18912;43.270;27.942;2023-10-08T13:08:17;97594.97;;;32.46;24.17
32456;BME280;18912;43.270;27.942;2023-10-08T13:10:42;97598.44;;;32.12;24.42
32456;BME280;18912;43.270;27.942;2023-10-08T13:13:12;97592.63;;;32.05;24.34
32456;BME280;18912;43.270;27.942;2023-10-08T13:15:38;97596.78;;;31.68;24.37
32456;BME280;18912;43.270;27.942;2023-10-08T13:18:03;97601.31;;;31.88;23.96